Moncks Corner, SC

2:43 PM EDT on July 29, 2015 (GMT -0400)
Moncks Corner | | Change Station
CLOSE
Current Station
Airport
Location: Moncks Corner,
Elevation: 72 ft
Nearby Weather Stations

Elev 72 ft 33.19 °N, 80.04 °W | Updated 8 minutes ago

Clear
Clear
95 °F
Feels Like 98 °F
N
7
Wind Variable Wind from East

Today
High -- | Low -- °F
--% Chance of Precip.
Yesterday
High -- | Low -- °F
Precip. -- in
6:30 AM 8:21 PM
Waxing Gibbous, 96% visible
Pressure 29.96 in
Visibility 7.0 miles
Clouds Clear
Heat Index 98 °F
Dew Point 66 °F
Humidity 39%
Rainfall 0.00 in
Snow Depth Not available.
UV 11 out of 12
Pollen 4.20 out of 12
Air Quality Not available.
Flu Activity Not available.
METAR KMKS 291835Z AUTO 08006KT 7SM CLR 35/19 A2996 RMK AO2 LTG DSNT SE

More Conditions Fewer Conditions

Pressure 29.96 in
Visibility 7.0 miles
Clouds Clear
Heat Index 98 °F
Dew Point 66 °F
Humidity 39%
Rainfall 0.00 in
Snow Depth Not available.
UV 11 out of 12
Pollen 4.20 out of 12
Air Quality Not available.
Flu Activity Not available.
METAR KMKS 291835Z AUTO 08006KT 7SM CLR 35/19 A2996 RMK AO2 LTG DSNT SE

More Conditions Fewer Conditions

10-Day Weather Forecast

×

Almanac

Astronomy

Jul. 29, 2015 Rise Set
Actual Time
Civil Twilight
Nautical Twilight
Astronomical Twilight
Moon
Length of Visible Light
Length of Day
Tomorrow will be .
, % of the Moon is Illuminated

Today's Extremes

State Highs State Lows

Community

WunderPhotos

Upload Photos

1,842,149 photos uploaded!

WunderBlogs® & News

Nearby

Air Quality

  Air Quality AQ Index Pollutant
Not available.

Snow Depth

Station Depth Elevation

Earthquake Activity

City Distance Mag. Time & Date
Minimum magnitude displayed is 2.5.

Coastal Water Temperatures

Place Temperature

Stations

Nearby Weather Stations

Station Location Temp. Windchill Dew Point Humidity Wind Precip. Elev Updated Type